sensor_id;sensor_type;location;lat;lon;timestamp;pressure;altitude;pressure_sealevel;temperature;humidity
9855;BME280;4966;48.112;9.282;2023-02-22T00:00:12;94615.84;;;1.60;82.01
9855;BME280;4966;48.112;9.282;2023-02-22T00:02:46;94611.69;;;1.48;82.53
9855;BME280;4966;48.112;9.282;2023-02-22T00:05:13;94612.63;;;1.63;81.82
9855;BME280;4966;48.112;9.282;2023-02-22T00:07:41;94615.25;;;1.68;80.51
9855;BME280;4966;48.112;9.282;2023-02-22T00:10:09;94612.75;;;1.47;80.61
9855;BME280;4966;48.112;9.282;2023-02-22T00:12:40;94609.34;;;1.42;80.57
9855;BME280;4966;48.112;9.282;2023-02-22T00:15:06;94616.72;;;1.55;79.36
9855;BME280;4966;48.112;9.282;2023-02-22T00:17:31;94610.75;;;1.34;80.06
9855;BME280;4966;48.112;9.282;2023-02-22T00:19:58;94606.28;;;1.54;79.75
9855;BME280;4966;48.112;9.282;2023-02-22T00:22:23;94605.34;;;1.39;80.19
9855;BME280;4966;48.112;9.282;2023-02-22T00:24:49;94606.28;;;1.19;81.25
9855;BME280;4966;48.112;9.282;2023-02-22T00:27:14;94608.69;;;1.21;81.65
9855;BME280;4966;48.112;9.282;2023-02-22T00:29:44;94607.91;;;1.20;81.80
9855;BME280;4966;48.112;9.282;2023-02-22T00:32:10;94609.28;;;1.18;82.49
9855;BME280;4966;48.112;9.282;2023-02-22T00:34:36;94607.91;;;1.20;82.53
9855;BME280;4966;48.112;9.282;2023-02-22T00:37:01;94609.19;;;1.28;82.09
9855;BME280;4966;48.112;9.282;2023-02-22T00:39:28;94606.13;;;1.40;80.97
9855;BME280;4966;48.112;9.282;2023-02-22T00:41:54;94603.72;;;1.38;80.61
9855;BME280;4966;48.112;9.282;2023-02-22T00:44:20;94609.13;;;1.33;80.41
9855;BME280;4966;48.112;9.282;2023-02-22T00:46:46;94606.16;;;1.05;81.91
9855;BME280;4966;48.112;9.282;2023-02-22T00:49:12;94602.91;;;1.09;81.64
9855;BME280;4966;48.112;9.282;2023-02-22T00:51:37;94605.09;;;1.01;82.15
9855;BME280;4966;48.112;9.282;2023-02-22T00:54:03;94604.81;;;1.03;82.03
9855;BME280;4966;48.112;9.282;2023-02-22T00:56:31;94601.59;;;1.06;82.05
9855;BME280;4966;48.112;9.282;2023-02-22T00:58:58;94597.03;;;1.06;81.97
9855;BME280;4966;48.112;9.282;2023-02-22T01:01:25;94590.56;;;1.13;81.91
9855;BME280;4966;48.112;9.282;2023-02-22T01:03:51;94597.03;;;1.06;82.21
9855;BME280;4966;48.112;9.282;2023-02-22T01:06:16;94595.56;;;1.19;81.53
9855;BME280;4966;48.112;9.282;2023-02-22T01:08:46;94598.25;;;1.19;80.85
9855;BME280;4966;48.112;9.282;2023-02-22T01:11:12;94585.63;;;1.25;79.81
9855;BME280;4966;48.112;9.282;2023-02-22T01:13:37;94586.91;;;1.33;78.74
9855;BME280;4966;48.112;9.282;2023-02-22T01:16:04;94586.66;;;1.29;78.81
9855;BME280;4966;48.112;9.282;2023-02-22T01:18:35;94590.19;;;0.90;80.91
9855;BME280;4966;48.112;9.282;2023-02-22T01:21:02;94582.44;;;0.83;81.42
9855;BME280;4966;48.112;9.282;2023-02-22T01:23:28;94586.41;;;0.96;81.21
9855;BME280;4966;48.112;9.282;2023-02-22T01:25:53;94577.63;;;0.85;81.68
9855;BME280;4966;48.112;9.282;2023-02-22T01:28:18;94575.44;;;0.93;81.90
9855;BME280;4966;48.112;9.282;2023-02-22T01:30:44;94569.84;;;0.89;81.77
9855;BME280;4966;48.112;9.282;2023-02-22T01:33:09;94572.47;;;0.94;81.26
9855;BME280;4966;48.112;9.282;2023-02-22T01:35:37;94574.28;;;1.04;80.56
9855;BME280;4966;48.112;9.282;2023-02-22T01:38:05;94565.84;;;0.87;80.94
9855;BME280;4966;48.112;9.282;2023-02-22T01:40:33;94569.38;;;0.82;81.29
9855;BME280;4966;48.112;9.282;2023-02-22T01:43:02;94567.22;;;0.84;81.40
9855;BME280;4966;48.112;9.282;2023-02-22T01:48:14;94567.69;;;0.86;81.58
9855;BME280;4966;48.112;9.282;2023-02-22T01:50:48;94567.47;;;0.82;81.72
9855;BME280;4966;48.112;9.282;2023-02-22T01:53:16;94557.88;;;0.76;81.17
9855;BME280;4966;48.112;9.282;2023-02-22T01:55:43;94551.94;;;0.84;80.49
9855;BME280;4966;48.112;9.282;2023-02-22T01:58:10;94558.16;;;0.75;80.91
9855;BME280;4966;48.112;9.282;2023-02-22T02:00:36;94563.53;;;0.75;80.64
9855;BME280;4966;48.112;9.282;2023-02-22T02:03:07;94552.38;;;0.62;81.43
9855;BME280;4966;48.112;9.282;2023-02-22T02:05:35;94544.88;;;0.59;81.80
9855;BME280;4966;48.112;9.282;2023-02-22T02:08:11;94539.00;;;0.57;81.88
9855;BME280;4966;48.112;9.282;2023-02-22T02:10:40;94545.69;;;0.55;82.32
9855;BME280;4966;48.112;9.282;2023-02-22T02:13:07;94548.00;;;0.72;81.63
9855;BME280;4966;48.112;9.282;2023-02-22T02:15:32;94543.59;;;0.91;80.71
9855;BME280;4966;48.112;9.282;2023-02-22T02:18:05;94544.09;;;0.93;81.16
9855;BME280;4966;48.112;9.282;2023-02-22T02:27:11;94532.41;;;0.45;82.71
9855;BME280;4966;48.112;9.282;2023-02-22T02:32:28;94529.16;;;0.48;82.33
9855;BME280;4966;48.112;9.282;2023-02-22T02:38:21;94514.97;;;0.47;82.35
9855;BME280;4966;48.112;9.282;2023-02-22T02:40:51;94523.28;;;0.51;82.08
9855;BME280;4966;48.112;9.282;2023-02-22T02:46:03;94511.81;;;0.40;81.92
9855;BME280;4966;48.112;9.282;2023-02-22T02:48:32;94499.41;;;0.54;80.38
9855;BME280;4966;48.112;9.282;2023-02-22T02:51:00;94508.03;;;0.46;79.96
9855;BME280;4966;48.112;9.282;2023-02-22T02:53:34;94503.22;;;0.43;79.70
9855;BME280;4966;48.112;9.282;2023-02-22T02:56:01;94503.06;;;0.29;80.14
9855;BME280;4966;48.112;9.282;2023-02-22T02:58:27;94499.72;;;0.48;78.62
9855;BME280;4966;48.112;9.282;2023-02-22T03:00:56;94508.00;;;0.51;77.84
9855;BME280;4966;48.112;9.282;2023-02-22T03:03:34;94508.56;;;0.43;78.71
9855;BME280;4966;48.112;9.282;2023-02-22T03:11:19;94500.00;;;0.02;83.48
9855;BME280;4966;48.112;9.282;2023-02-22T03:14:07;94493.59;;;-0.03;83.78
9855;BME280;4966;48.112;9.282;2023-02-22T03:22:12;94488.50;;;0.06;82.93
9855;BME280;4966;48.112;9.282;2023-02-22T03:24:46;94485.78;;;0.11;82.63
9855;BME280;4966;48.112;9.282;2023-02-22T03:27:27;94486.75;;;0.26;81.57
9855;BME280;4966;48.112;9.282;2023-02-22T03:29:59;94488.22;;;0.08;81.84
9855;BME280;4966;48.112;9.282;2023-02-22T03:32:31;94476.94;;;0.16;81.60
9855;BME280;4966;48.112;9.282;2023-02-22T03:35:08;94488.53;;;0.01;82.45
9855;BME280;4966;48.112;9.282;2023-02-22T03:37:40;94483.47;;;-0.06;83.12
9855;BME280;4966;48.112;9.282;2023-02-22T03:40:08;94477.59;;;-0.08;82.76
9855;BME280;4966;48.112;9.282;2023-02-22T03:42:45;94481.84;;;-0.02;82.92
9855;BME280;4966;48.112;9.282;2023-02-22T03:45:14;94485.59;;;-0.03;83.00
9855;BME280;4966;48.112;9.282;2023-02-22T03:47:45;94486.84;;;0.15;82.13
9855;BME280;4966;48.112;9.282;2023-02-22T03:50:17;94489.72;;;0.24;80.58
9855;BME280;4966;48.112;9.282;2023-02-22T03:52:44;94491.09;;;0.16;80.63
9855;BME280;4966;48.112;9.282;2023-02-22T03:55:12;94498.41;;;0.06;80.44
9855;BME280;4966;48.112;9.282;2023-02-22T03:57:44;94496.09;;;-0.16;81.60
9855;BME280;4966;48.112;9.282;2023-02-22T04:00:13;94492.38;;;-0.20;81.70
9855;BME280;4966;48.112;9.282;2023-02-22T04:02:39;94491.00;;;-0.13;81.75
9855;BME280;4966;48.112;9.282;2023-02-22T04:05:05;94492.38;;;-0.20;81.76
9855;BME280;4966;48.112;9.282;2023-02-22T04:07:30;94490.53;;;-0.30;82.98
9855;BME280;4966;48.112;9.282;2023-02-22T04:09:56;94493.69;;;-0.18;82.79
9855;BME280;4966;48.112;9.282;2023-02-22T04:12:21;94486.63;;;0.02;81.74
9855;BME280;4966;48.112;9.282;2023-02-22T04:14:47;94482.25;;;-0.24;82.72
9855;BME280;4966;48.112;9.282;2023-02-22T04:17:12;94484.09;;;-0.24;83.01
9855;BME280;4966;48.112;9.282;2023-02-22T04:19:37;94492.59;;;-0.12;82.25
9855;BME280;4966;48.112;9.282;2023-02-22T04:22:03;94484.09;;;-0.19;82.12
9855;BME280;4966;48.112;9.282;2023-02-22T04:24:28;94483.59;;;-0.26;82.28
9855;BME280;4966;48.112;9.282;2023-02-22T04:26:53;94484.38;;;-0.26;82.41
9855;BME280;4966;48.112;9.282;2023-02-22T04:29:19;94492.88;;;-0.13;81.52
9855;BME280;4966;48.112;9.282;2023-02-22T04:31:45;94489.44;;;-0.24;81.68
9855;BME280;4966;48.112;9.282;2023-02-22T04:34:10;94494.25;;;-0.21;81.14
9855;BME280;4966;48.112;9.282;2023-02-22T04:36:36;94497.13;;;-0.07;79.21
9855;BME280;4966;48.112;9.282;2023-02-22T04:39:01;94500.06;;;-0.09;78.84
9855;BME280;4966;48.112;9.282;2023-02-22T04:41:27;94490.50;;;-0.20;80.38
9855;BME280;4966;48.112;9.282;2023-02-22T04:43:52;94491.41;;;-0.45;81.23
9855;BME280;4966;48.112;9.282;2023-02-22T04:46:18;94490.06;;;-0.43;81.40
9855;BME280;4966;48.112;9.282;2023-02-22T04:48:44;94497.31;;;-0.53;81.95
9855;BME280;4966;48.112;9.282;2023-02-22T04:51:09;94495.72;;;-0.54;82.38
9855;BME280;4966;48.112;9.282;2023-02-22T04:53:35;94495.16;;;-0.51;82.42
9855;BME280;4966;48.112;9.282;2023-02-22T04:56:01;94494.38;;;-0.52;82.67
9855;BME280;4966;48.112;9.282;2023-02-22T04:58:26;94497.59;;;-0.60;83.96
9855;BME280;4966;48.112;9.282;2023-02-22T05:00:51;94485.50;;;-0.37;83.51
9855;BME280;4966;48.112;9.282;2023-02-22T05:03:17;94493.16;;;-0.20;82.51
9855;BME280;4966;48.112;9.282;2023-02-22T05:05:51;94488.72;;;-0.40;82.57
9855;BME280;4966;48.112;9.282;2023-02-22T05:08:17;94479.94;;;-0.51;83.27
9855;BME280;4966;48.112;9.282;2023-02-22T05:10:42;94497.03;;;-0.47;83.04
9855;BME280;4966;48.112;9.282;2023-02-22T05:13:07;94479.94;;;-0.51;83.09
9855;BME280;4966;48.112;9.282;2023-02-22T05:15:33;94480.47;;;-0.49;83.11
9855;BME280;4966;48.112;9.282;2023-02-22T05:17:59;94478.25;;;-0.31;82.05
9855;BME280;4966;48.112;9.282;2023-02-22T05:20:30;94483.94;;;-0.53;82.49
9855;BME280;4966;48.112;9.282;2023-02-22T05:22:58;94480.44;;;-0.44;82.15
9855;BME280;4966;48.112;9.282;2023-02-22T05:25:25;94473.44;;;-0.34;81.34
9855;BME280;4966;48.112;9.282;2023-02-22T05:28:01;94470.31;;;-0.52;81.57
9855;BME280;4966;48.112;9.282;2023-02-22T05:30:32;94462.84;;;-0.60;82.32
9855;BME280;4966;48.112;9.282;2023-02-22T05:32:59;94465.53;;;-0.55;82.29
9855;BME280;4966;48.112;9.282;2023-02-22T05:35:25;94467.94;;;-0.58;82.14
9855;BME280;4966;48.112;9.282;2023-02-22T05:37:50;94456.69;;;-0.55;81.75
9855;BME280;4966;48.112;9.282;2023-02-22T05:40:21;94462.34;;;-0.62;82.05
9855;BME280;4966;48.112;9.282;2023-02-22T05:42:48;94463.16;;;-0.61;82.25
9855;BME280;4966;48.112;9.282;2023-02-22T05:45:15;94456.63;;;-0.35;80.89
9855;BME280;4966;48.112;9.282;2023-02-22T05:47:40;94453.47;;;-0.47;80.88
9855;BME280;4966;48.112;9.282;2023-02-22T05:50:06;94469.03;;;-0.59;81.58
9855;BME280;4966;48.112;9.282;2023-02-22T05:52:32;94459.41;;;-0.66;82.39
9855;BME280;4966;48.112;9.282;2023-02-22T05:54:57;94452.69;;;-0.48;81.57
9855;BME280;4966;48.112;9.282;2023-02-22T05:57:23;94459.66;;;-0.57;81.64
9855;BME280;4966;48.112;9.282;2023-02-22T05:59:48;94453.81;;;-0.64;81.86
9855;BME280;4966;48.112;9.282;2023-02-22T06:02:13;94445.50;;;-0.62;81.83
9855;BME280;4966;48.112;9.282;2023-02-22T06:04:39;94461.28;;;-0.61;82.59
9855;BME280;4966;48.112;9.282;2023-02-22T06:07:05;94447.97;;;-0.71;83.56
9855;BME280;4966;48.112;9.282;2023-02-22T06:09:30;94454.03;;;-0.55;82.75
9855;BME280;4966;48.112;9.282;2023-02-22T06:11:56;94455.66;;;-0.59;82.90
9855;BME280;4966;48.112;9.282;2023-02-22T06:14:21;94456.44;;;-0.54;82.90
9855;BME280;4966;48.112;9.282;2023-02-22T06:16:52;94456.72;;;-0.60;83.37
9855;BME280;4966;48.112;9.282;2023-02-22T06:19:18;94458.31;;;-0.54;83.19
9855;BME280;4966;48.112;9.282;2023-02-22T06:21:51;94457.47;;;-0.45;82.96
9855;BME280;4966;48.112;9.282;2023-02-22T06:24:17;94467.31;;;-0.35;82.37
9855;BME280;4966;48.112;9.282;2023-02-22T06:26:42;94472.91;;;-0.31;81.61
9855;BME280;4966;48.112;9.282;2023-02-22T06:29:07;94465.91;;;-0.22;80.23
9855;BME280;4966;48.112;9.282;2023-02-22T06:31:33;94466.16;;;-0.18;79.44
9855;BME280;4966;48.112;9.282;2023-02-22T06:33:59;94472.88;;;-0.21;79.21
9855;BME280;4966;48.112;9.282;2023-02-22T06:36:24;94475.88;;;-0.38;80.33
9855;BME280;4966;48.112;9.282;2023-02-22T06:38:49;94470.84;;;-0.45;81.29
9855;BME280;4966;48.112;9.282;2023-02-22T06:41:15;94470.03;;;-0.45;82.22
9855;BME280;4966;48.112;9.282;2023-02-22T06:43:40;94476.81;;;-0.08;80.73
9855;BME280;4966;48.112;9.282;2023-02-22T06:46:10;94475.66;;;0.08;80.57
9855;BME280;4966;48.112;9.282;2023-02-22T06:48:36;94473.78;;;0.04;80.88
9855;BME280;4966;48.112;9.282;2023-02-22T06:51:02;94478.84;;;0.10;81.10
9855;BME280;4966;48.112;9.282;2023-02-22T06:53:28;94478.69;;;0.31;80.50
9855;BME280;4966;48.112;9.282;2023-02-22T06:55:53;94476.28;;;0.34;80.18
9855;BME280;4966;48.112;9.282;2023-02-22T06:58:19;94484.06;;;0.31;80.64
9855;BME280;4966;48.112;9.282;2023-02-22T07:00:44;94476.31;;;0.29;80.57
9855;BME280;4966;48.112;9.282;2023-02-22T07:03:10;94477.81;;;0.46;80.64
9855;BME280;4966;48.112;9.282;2023-02-22T07:05:35;94483.56;;;0.63;80.75
9855;BME280;4966;48.112;9.282;2023-02-22T07:08:04;94486.72;;;0.70;80.89
9855;BME280;4966;48.112;9.282;2023-02-22T07:10:31;94485.69;;;0.95;80.75
9855;BME280;4966;48.112;9.282;2023-02-22T07:12:57;94487.66;;;1.14;80.38
9855;BME280;4966;48.112;9.282;2023-02-22T07:15:24;94484.50;;;1.06;80.51
9855;BME280;4966;48.112;9.282;2023-02-22T07:17:50;94482.09;;;1.34;78.58
9855;BME280;4966;48.112;9.282;2023-02-22T07:20:17;94481.06;;;1.30;78.26
9855;BME280;4966;48.112;9.282;2023-02-22T07:22:45;94483.56;;;1.45;77.89
9855;BME280;4966;48.112;9.282;2023-02-22T07:25:11;94477.81;;;1.57;76.80
9855;BME280;4966;48.112;9.282;2023-02-22T07:27:40;94480.09;;;1.45;77.08
9855;BME280;4966;48.112;9.282;2023-02-22T07:30:14;94483.19;;;1.33;78.06
9855;BME280;4966;48.112;9.282;2023-02-22T07:32:44;94477.41;;;1.69;76.62
9855;BME280;4966;48.112;9.282;2023-02-22T07:35:15;94477.66;;;1.91;75.74
9855;BME280;4966;48.112;9.282;2023-02-22T07:37:41;94484.34;;;2.13;74.22
9855;BME280;4966;48.112;9.282;2023-02-22T07:40:08;94475.16;;;2.19;74.13
9855;BME280;4966;48.112;9.282;2023-02-22T07:43:33;94471.09;;;2.22;74.79
9855;BME280;4966;48.112;9.282;2023-02-22T07:45:34;94475.22;;;2.33;74.44
9855;BME280;4966;48.112;9.282;2023-02-22T07:48:01;94477.84;;;2.38;75.10
9855;BME280;4966;48.112;9.282;2023-02-22T07:50:28;94475.78;;;2.49;75.02
9855;BME280;4966;48.112;9.282;2023-02-22T07:52:56;94474.84;;;2.59;74.68
9855;BME280;4966;48.112;9.282;2023-02-22T07:55:24;94474.81;;;2.26;76.30
9855;BME280;4966;48.112;9.282;2023-02-22T07:57:52;94469.50;;;2.40;76.58
9855;BME280;4966;48.112;9.282;2023-02-22T08:00:37;94477.53;;;2.59;75.84
9855;BME280;4966;48.112;9.282;2023-02-22T08:03:06;94473.13;;;2.82;75.87
9855;BME280;4966;48.112;9.282;2023-02-22T08:05:33;94471.47;;;2.86;75.95
9855;BME280;4966;48.112;9.282;2023-02-22T08:07:59;94475.44;;;3.21;75.06
9855;BME280;4966;48.112;9.282;2023-02-22T08:10:25;94475.22;;;3.17;75.37
9855;BME280;4966;48.112;9.282;2023-02-22T08:12:52;94475.03;;;2.81;77.63
9855;BME280;4966;48.112;9.282;2023-02-22T08:17:45;94476.00;;;3.18;76.12
9855;BME280;4966;48.112;9.282;2023-02-22T08:20:11;94474.47;;;3.58;74.53
9855;BME280;4966;48.112;9.282;2023-02-22T08:22:37;94464.69;;;3.35;74.61
9855;BME280;4966;48.112;9.282;2023-02-22T08:25:03;94462.81;;;3.63;74.18
9855;BME280;4966;48.112;9.282;2023-02-22T08:27:29;94466.66;;;4.12;71.38
9855;BME280;4966;48.112;9.282;2023-02-22T08:29:55;94470.69;;;4.23;71.83
9855;BME280;4966;48.112;9.282;2023-02-22T08:32:21;94464.09;;;4.43;72.06
9855;BME280;4966;48.112;9.282;2023-02-22T08:34:47;94468.56;;;4.71;71.50
9855;BME280;4966;48.112;9.282;2023-02-22T08:37:14;94464.22;;;4.83;71.46
9855;BME280;4966;48.112;9.282;2023-02-22T08:39:39;94467.31;;;4.54;72.26
9855;BME280;4966;48.112;9.282;2023-02-22T08:42:05;94462.94;;;5.03;70.70
9855;BME280;4966;48.112;9.282;2023-02-22T08:44:33;94464.31;;;5.23;69.18
9855;BME280;4966;48.112;9.282;2023-02-22T08:46:58;94459.13;;;5.36;69.61
9855;BME280;4966;48.112;9.282;2023-02-22T08:49:23;94452.88;;;5.58;69.25
9855;BME280;4966;48.112;9.282;2023-02-22T08:51:49;94453.41;;;5.68;69.17
9855;BME280;4966;48.112;9.282;2023-02-22T08:54:14;94453.13;;;5.39;69.95
9855;BME280;4966;48.112;9.282;2023-02-22T08:56:39;94457.13;;;4.87;73.17
9855;BME280;4966;48.112;9.282;2023-02-22T08:59:05;94449.00;;;5.81;70.70
9855;BME280;4966;48.112;9.282;2023-02-22T09:01:30;94454.44;;;5.90;70.80
9855;BME280;4966;48.112;9.282;2023-02-22T09:03:56;94449.66;;;5.87;71.15
9855;BME280;4966;48.112;9.282;2023-02-22T09:06:22;94448.50;;;6.36;69.42
9855;BME280;4966;48.112;9.282;2023-02-22T09:08:48;94450.09;;;6.55;68.48
9855;BME280;4966;48.112;9.282;2023-02-22T09:11:13;94449.31;;;6.54;69.33
9855;BME280;4966;48.112;9.282;2023-02-22T09:13:39;94440.84;;;6.82;68.44
9855;BME280;4966;48.112;9.282;2023-02-22T09:16:04;94451.84;;;6.77;69.13
9855;BME280;4966;48.112;9.282;2023-02-22T09:18:30;94445.97;;;6.92;69.18
9855;BME280;4966;48.112;9.282;2023-02-22T09:20:55;94441.84;;;6.60;70.78
9855;BME280;4966;48.112;9.282;2023-02-22T09:23:20;94454.38;;;6.82;69.62
9855;BME280;4966;48.112;9.282;2023-02-22T09:25:47;94445.88;;;7.27;68.01
9855;BME280;4966;48.112;9.282;2023-02-22T09:28:12;94439.31;;;7.37;67.42
9855;BME280;4966;48.112;9.282;2023-02-22T09:30:38;94436.16;;;7.35;65.64
9855;BME280;4966;48.112;9.282;2023-02-22T09:35:37;94439.38;;;8.05;64.56
9855;BME280;4966;48.112;9.282;2023-02-22T09:38:07;94429.81;;;8.28;63.70
9855;BME280;4966;48.112;9.282;2023-02-22T09:40:35;94427.22;;;8.32;63.58
9855;BME280;4966;48.112;9.282;2023-02-22T09:43:59;94421.72;;;8.70;63.19
9855;BME280;4966;48.112;9.282;2023-02-22T09:52:50;94410.66;;;9.54;61.57
9855;BME280;4966;48.112;9.282;2023-02-22T09:54:44;94415.28;;;9.42;63.65
9855;BME280;4966;48.112;9.282;2023-02-22T09:57:20;94417.50;;;9.27;64.86
9855;BME280;4966;48.112;9.282;2023-02-22T10:00:00;94405.44;;;9.86;62.13
9855;BME280;4966;48.112;9.282;2023-02-22T10:02:43;94403.19;;;10.13;61.42
9855;BME280;4966;48.112;9.282;2023-02-22T10:05:21;94404.75;;;10.38;59.06
9855;BME280;4966;48.112;9.282;2023-02-22T10:07:58;94407.81;;;10.00;61.08
9855;BME280;4966;48.112;9.282;2023-02-22T10:10:28;94408.34;;;10.55;59.76
9855;BME280;4966;48.112;9.282;2023-02-22T10:15:41;94404.34;;;10.64;58.89
9855;BME280;4966;48.112;9.282;2023-02-22T10:21:02;94398.63;;;10.82;59.50
9855;BME280;4966;48.112;9.282;2023-02-22T10:23:50;94396.34;;;10.84;59.73
9855;BME280;4966;48.112;9.282;2023-02-22T10:26:26;94396.28;;;10.96;60.83
9855;BME280;4966;48.112;9.282;2023-02-22T10:28:57;94397.19;;;10.72;61.25
9855;BME280;4966;48.112;9.282;2023-02-22T10:31:33;94391.41;;;11.02;60.58
9855;BME280;4966;48.112;9.282;2023-02-22T10:34:02;94394.94;;;10.62;61.38
9855;BME280;4966;48.112;9.282;2023-02-22T10:36:30;94388.28;;;10.88;60.50
9855;BME280;4966;48.112;9.282;2023-02-22T10:39:06;94388.38;;;10.91;60.69
9855;BME280;4966;48.112;9.282;2023-02-22T10:41:43;94394.47;;;10.72;60.85
9855;BME280;4966;48.112;9.282;2023-02-22T10:44:11;94383.63;;;11.16;59.42
9855;BME280;4966;48.112;9.282;2023-02-22T10:46:38;94386.44;;;11.20;59.95
9855;BME280;4966;48.112;9.282;2023-02-22T10:49:06;94373.13;;;11.62;57.68
9855;BME280;4966;48.112;9.282;2023-02-22T10:51:32;94376.09;;;11.57;58.28
9855;BME280;4966;48.112;9.282;2023-02-22T10:54:17;94373.47;;;11.45;57.56
9855;BME280;4966;48.112;9.282;2023-02-22T10:56:47;94370.47;;;11.50;57.06
9855;BME280;4966;48.112;9.282;2023-02-22T10:59:29;94363.00;;;11.63;55.76
9855;BME280;4966;48.112;9.282;2023-02-22T11:01:57;94374.06;;;11.70;55.39
9855;BME280;4966;48.112;9.282;2023-02-22T11:04:23;94367.50;;;11.71;55.50
9855;BME280;4966;48.112;9.282;2023-02-22T11:09:23;94355.47;;;11.88;54.20
9855;BME280;4966;48.112;9.282;2023-02-22T11:12:09;94355.25;;;11.97;53.34
9855;BME280;4966;48.112;9.282;2023-02-22T11:14:34;94357.19;;;11.96;53.57
9855;BME280;4966;48.112;9.282;2023-02-22T11:17:05;94346.34;;;12.16;53.43
9855;BME280;4966;48.112;9.282;2023-02-22T11:19:32;94337.13;;;12.40;53.07
9855;BME280;4966;48.112;9.282;2023-02-22T11:22:10;94341.34;;;12.56;53.12
9855;BME280;4966;48.112;9.282;2023-02-22T11:24:47;94348.69;;;12.52;53.12
9855;BME280;4966;48.112;9.282;2023-02-22T11:27:37;94328.72;;;12.87;52.65
9855;BME280;4966;48.112;9.282;2023-02-22T11:30:31;94327.28;;;13.16;51.75
9855;BME280;4966;48.112;9.282;2023-02-22T11:38:20;94306.41;;;13.74;51.18
9855;BME280;4966;48.112;9.282;2023-02-22T11:40:46;94303.44;;;13.82;50.42
9855;BME280;4966;48.112;9.282;2023-02-22T11:43:17;94306.44;;;14.27;49.73
9855;BME280;4966;48.112;9.282;2023-02-22T11:45:57;94303.53;;;14.16;50.22
9855;BME280;4966;48.112;9.282;2023-02-22T11:48:26;94304.56;;;14.35;48.83
9855;BME280;4966;48.112;9.282;2023-02-22T11:51:15;94295.47;;;14.91;48.16
9855;BME280;4966;48.112;9.282;2023-02-22T11:57:04;94291.53;;;15.70;46.82
9855;BME280;4966;48.112;9.282;2023-02-22T12:08:23;94265.94;;;18.38;39.05
9855;BME280;4966;48.112;9.282;2023-02-22T12:16:31;94263.28;;;17.52;40.71
9855;BME280;4966;48.112;9.282;2023-02-22T12:19:10;94265.97;;;17.09;42.32
9855;BME280;4966;48.112;9.282;2023-02-22T12:21:40;94272.28;;;17.20;41.81
9855;BME280;4966;48.112;9.282;2023-02-22T12:24:17;94261.31;;;17.56;41.07
9855;BME280;4966;48.112;9.282;2023-02-22T12:31:51;94253.94;;;16.37;43.96
9855;BME280;4966;48.112;9.282;2023-02-22T12:34:30;94260.13;;;15.16;46.08
9855;BME280;4966;48.112;9.282;2023-02-22T12:37:04;94257.34;;;15.13;47.40
9855;BME280;4966;48.112;9.282;2023-02-22T12:45:27;94255.56;;;15.76;46.48
9855;BME280;4966;48.112;9.282;2023-02-22T12:50:28;94254.78;;;15.79;45.82
9855;BME280;4966;48.112;9.282;2023-02-22T12:53:03;94258.09;;;16.06;45.38
9855;BME280;4966;48.112;9.282;2023-02-22T12:55:37;94258.38;;;16.67;44.36
9855;BME280;4966;48.112;9.282;2023-02-22T12:58:29;94252.16;;;16.80;44.43
9855;BME280;4966;48.112;9.282;2023-02-22T13:01:18;94254.94;;;16.84;43.69
9855;BME280;4966;48.112;9.282;2023-02-22T13:03:45;94252.22;;;16.91;43.42
9855;BME280;4966;48.112;9.282;2023-02-22T13:06:20;94264.03;;;17.13;42.90
9855;BME280;4966;48.112;9.282;2023-02-22T13:09:04;94238.53;;;17.38;42.59
9855;BME280;4966;48.112;9.282;2023-02-22T13:22:37;94240.88;;;17.50;41.74
9855;BME280;4966;48.112;9.282;2023-02-22T13:25:50;94242.84;;;17.32;42.35
9855;BME280;4966;48.112;9.282;2023-02-22T13:28:45;94239.31;;;17.20;42.17
9855;BME280;4966;48.112;9.282;2023-02-22T13:48:15;94238.91;;;17.26;41.42
9855;BME280;4966;48.112;9.282;2023-02-22T13:53:49;94232.25;;;17.84;40.21
9855;BME280;4966;48.112;9.282;2023-02-22T13:56:19;94230.28;;;17.49;41.19
9855;BME280;4966;48.112;9.282;2023-02-22T13:58:50;94240.50;;;17.37;41.16
9855;BME280;4966;48.112;9.282;2023-02-22T14:01:47;94236.97;;;17.44;40.61
9855;BME280;4966;48.112;9.282;2023-02-22T14:06:55;94235.75;;;16.98;41.69
9855;BME280;4966;48.112;9.282;2023-02-22T14:17:58;94234.59;;;17.85;40.19
9855;BME280;4966;48.112;9.282;2023-02-22T14:20:35;94224.75;;;17.95;39.74
9855;BME280;4966;48.112;9.282;2023-02-22T14:23:54;94229.88;;;17.72;40.55
9855;BME280;4966;48.112;9.282;2023-02-22T14:26:32;94231.06;;;17.31;41.22
9855;BME280;4966;48.112;9.282;2023-02-22T14:34:16;94240.88;;;18.00;39.97
9855;BME280;4966;48.112;9.282;2023-02-22T14:41:54;94235.78;;;17.27;41.40
9855;BME280;4966;48.112;9.282;2023-02-22T14:44:30;94239.56;;;16.76;42.13
9855;BME280;4966;48.112;9.282;2023-02-22T14:46:58;94236.69;;;16.36;43.00
9855;BME280;4966;48.112;9.282;2023-02-22T14:49:31;94241.28;;;17.20;41.84
9855;BME280;4966;48.112;9.282;2023-02-22T14:52:05;94237.09;;;18.82;39.11
9855;BME280;4966;48.112;9.282;2023-02-22T14:54:43;94235.69;;;18.31;38.99
9855;BME280;4966;48.112;9.282;2023-02-22T14:57:28;94234.09;;;18.37;38.59
9855;BME280;4966;48.112;9.282;2023-02-22T15:00:06;94233.59;;;18.64;38.70
9855;BME280;4966;48.112;9.282;2023-02-22T15:02:47;94231.22;;;18.66;38.81
9855;BME280;4966;48.112;9.282;2023-02-22T15:05:16;94234.06;;;19.25;37.85
9855;BME280;4966;48.112;9.282;2023-02-22T15:07:55;94234.50;;;18.32;39.27
9855;BME280;4966;48.112;9.282;2023-02-22T15:10:23;94230.03;;;18.67;38.87
9855;BME280;4966;48.112;9.282;2023-02-22T15:13:01;94230.59;;;19.10;38.62
9855;BME280;4966;48.112;9.282;2023-02-22T15:15:41;94232.31;;;19.98;36.18
9855;BME280;4966;48.112;9.282;2023-02-22T15:18:19;94226.69;;;22.09;33.12
9855;BME280;4966;48.112;9.282;2023-02-22T15:20:46;94228.47;;;22.23;32.69
9855;BME280;4966;48.112;9.282;2023-02-22T15:23:20;94228.97;;;22.38;32.45
9855;BME280;4966;48.112;9.282;2023-02-22T15:25:48;94230.88;;;20.93;34.20
9855;BME280;4966;48.112;9.282;2023-02-22T15:28:14;94234.38;;;19.87;35.75
9855;BME280;4966;48.112;9.282;2023-02-22T15:30:41;94228.88;;;20.28;35.93
9855;BME280;4966;48.112;9.282;2023-02-22T15:33:13;94233.16;;;18.80;38.45
9855;BME280;4966;48.112;9.282;2023-02-22T15:35:40;94229.78;;;18.29;39.17
9855;BME280;4966;48.112;9.282;2023-02-22T15:40:37;94226.03;;;18.89;38.53
9855;BME280;4966;48.112;9.282;2023-02-22T15:43:14;94231.59;;;18.75;38.85
9855;BME280;4966;48.112;9.282;2023-02-22T15:45:40;94236.59;;;17.81;40.52
9855;BME280;4966;48.112;9.282;2023-02-22T15:48:09;94233.69;;;16.67;43.16
9855;BME280;4966;48.112;9.282;2023-02-22T15:50:34;94238.25;;;16.34;44.17
9855;BME280;4966;48.112;9.282;2023-02-22T15:53:07;94244.53;;;16.38;44.15
9855;BME280;4966;48.112;9.282;2023-02-22T15:55:35;94231.53;;;15.62;46.03
9855;BME280;4966;48.112;9.282;2023-02-22T15:58:09;94241.41;;;15.70;46.12
9855;BME280;4966;48.112;9.282;2023-02-22T16:00:37;94238.09;;;15.50;46.62